createdAt,value
2023-05-05T00:01:18.570Z,3.08
2023-05-05T00:03:47.964Z,3.35
2023-05-05T00:06:17.308Z,3.77
2023-05-05T00:08:47.943Z,4.17
2023-05-05T00:11:17.024Z,4.00
2023-05-05T00:13:46.525Z,3.77
2023-05-05T00:16:15.824Z,4.58
2023-05-05T00:18:45.240Z,6.15
2023-05-05T00:21:16.071Z,7.25
2023-05-05T00:23:44.954Z,6.90
2023-05-05T00:26:16.822Z,7.17
2023-05-05T00:28:47.250Z,11.63
2023-05-05T00:31:16.308Z,8.28
2023-05-05T00:33:45.546Z,11.05
2023-05-05T00:36:14.854Z,10.70
2023-05-05T00:38:44.236Z,12.20
2023-05-05T00:41:13.561Z,18.93
2023-05-05T00:43:42.856Z,12.00
2023-05-05T00:46:12.650Z,10.25
2023-05-05T00:48:41.863Z,11.63
2023-05-05T00:51:11.162Z,10.23
2023-05-05T00:53:40.366Z,12.93
2023-05-05T00:56:09.461Z,11.27
2023-05-05T00:58:38.646Z,9.80
2023-05-05T01:01:07.728Z,12.43
2023-05-05T01:03:37.046Z,12.43
2023-05-05T01:06:06.347Z,10.82
2023-05-05T01:08:35.753Z,10.70
2023-05-05T01:11:04.844Z,11.43
2023-05-05T01:13:33.942Z,10.20
2023-05-05T01:16:02.973Z,11.60
2023-05-05T01:18:32.251Z,11.57
2023-05-05T01:21:01.232Z,11.13
2023-05-05T01:23:30.113Z,12.63
2023-05-05T01:25:59.025Z,11.05
2023-05-05T01:28:27.909Z,11.00
2023-05-05T01:30:58.330Z,12.63
2023-05-05T01:33:27.320Z,10.98
2023-05-05T01:35:56.743Z,10.90
2023-05-05T01:38:25.610Z,14.15
2023-05-05T01:40:54.499Z,11.73
2023-05-05T01:43:23.421Z,12.85
2023-05-05T01:45:52.427Z,15.63
2023-05-05T01:48:22.831Z,12.82
2023-05-05T01:50:52.116Z,11.90
2023-05-05T01:53:21.005Z,12.93
2023-05-05T01:55:49.894Z,11.88
2023-05-05T01:58:18.894Z,11.50
2023-05-05T02:00:47.885Z,11.75
2023-05-05T02:03:16.997Z,12.67
2023-05-05T02:05:46.173Z,11.45
2023-05-05T02:08:15.069Z,10.68
2023-05-05T02:10:43.962Z,13.03
2023-05-05T02:13:13.800Z,10.18
2023-05-05T02:15:42.814Z,11.40
2023-05-05T02:18:11.774Z,10.05
2023-05-05T02:20:40.765Z,11.93
2023-05-05T02:23:09.849Z,10.53
2023-05-05T02:25:38.738Z,11.03
2023-05-05T02:28:07.666Z,10.80
2023-05-05T02:30:36.427Z,10.38
2023-05-05T02:33:05.550Z,10.50
2023-05-05T02:35:34.517Z,11.43
2023-05-05T02:38:04.012Z,11.20
2023-05-05T02:40:34.337Z,11.90
2023-05-05T02:43:03.623Z,11.03
2023-05-05T02:45:32.533Z,10.88
2023-05-05T02:48:01.681Z,12.47
2023-05-05T02:50:31.342Z,10.98
2023-05-05T02:53:01.761Z,11.28
2023-05-05T02:55:31.162Z,11.75
2023-05-05T02:58:00.071Z,13.03
2023-05-05T03:02:59.159Z,18.90
2023-05-05T03:05:29.090Z,16.15
2023-05-05T03:07:57.978Z,12.90
2023-05-05T03:10:28.302Z,13.30
2023-05-05T03:12:58.842Z,13.38
2023-05-05T03:15:32.432Z,13.32
